createdAt,value
2023-05-06T00:02:56.162Z,7.44
2023-05-06T00:07:59.770Z,7.29
2023-05-06T00:13:03.273Z,7.39
2023-05-06T00:18:07.419Z,7.40
2023-05-06T00:23:11.543Z,7.60
2023-05-06T00:28:15.833Z,7.76
2023-05-06T00:33:19.411Z,7.74
2023-05-06T00:38:23.228Z,7.70
2023-05-06T00:43:27.029Z,7.63
2023-05-06T00:48:30.507Z,7.55
2023-05-06T00:53:34.549Z,7.56
2023-05-06T00:58:38.543Z,7.51
2023-05-06T01:03:42.697Z,7.42
2023-05-06T01:08:55.058Z,7.41
2023-05-06T01:14:07.001Z,7.40
2023-05-06T01:19:17.605Z,7.36
2023-05-06T01:24:21.309Z,7.33
2023-05-06T01:29:24.407Z,7.44
2023-05-06T01:34:42.764Z,7.34
2023-05-06T01:39:48.869Z,7.16
2023-05-06T01:44:53.885Z,7.12
2023-05-06T01:49:59.279Z,7.10
2023-05-06T01:55:03.297Z,7.11
2023-05-06T02:00:07.595Z,7.10
2023-05-06T02:05:16.208Z,7.05
2023-05-06T02:10:23.738Z,7.10
2023-05-06T02:15:34.719Z,7.10
2023-05-06T02:20:38.266Z,7.10
2023-05-06T02:25:42.955Z,7.15
2023-05-06T02:30:46.379Z,7.07
2023-05-06T02:35:50.659Z,7.02
2023-05-06T02:40:54.364Z,6.98
2023-05-06T02:45:58.305Z,6.89
2023-05-06T02:51:02.697Z,6.82
2023-05-06T02:56:06.516Z,6.80
2023-05-06T03:01:09.715Z,6.73
2023-05-06T03:06:13.753Z,6.74
2023-05-06T03:11:16.775Z,6.70
2023-05-06T03:16:21.358Z,6.64
2023-05-06T03:21:28.107Z,6.73
2023-05-06T03:26:32.154Z,6.86
2023-05-06T03:31:36.182Z,6.73
2023-05-06T03:36:39.904Z,6.63
2023-05-06T03:41:43.782Z,6.44
2023-05-06T03:46:47.136Z,6.45
2023-05-06T03:51:51.549Z,6.39
2023-05-06T03:56:55.645Z,6.40
2023-05-06T04:01:59.226Z,6.30
2023-05-06T04:07:04.272Z,6.42
2023-05-06T04:12:08.804Z,6.37
2023-05-06T04:17:13.143Z,6.38
2023-05-06T04:22:18.281Z,6.45
2023-05-06T04:27:21.585Z,6.55
2023-05-06T04:32:26.017Z,6.96
2023-05-06T04:37:31.181Z,7.29
2023-05-06T04:42:48.047Z,7.54
2023-05-06T04:47:56.773Z,7.80
2023-05-06T04:53:01.452Z,8.02
2023-05-06T04:58:06.017Z,8.28
2023-05-06T05:03:10.804Z,8.59
2023-05-06T05:08:15.106Z,9.01
2023-05-06T05:13:19.430Z,9.43
2023-05-06T05:18:23.309Z,9.79
2023-05-06T05:23:31.281Z,10.29
2023-05-06T05:28:35.819Z,11.11
2023-05-06T05:33:40.504Z,11.78
2023-05-06T05:38:49.145Z,12.25
2023-05-06T05:43:53.741Z,12.93
2023-05-06T05:48:58.264Z,13.31
2023-05-06T05:54:02.435Z,13.69
2023-05-06T05:59:06.647Z,14.24
2023-05-06T06:04:11.393Z,14.56
2023-05-06T06:09:14.629Z,14.81
2023-05-06T06:14:18.950Z,15.13
2023-05-06T06:19:24.439Z,16.87
2023-05-06T06:24:28.577Z,19.36
2023-05-06T06:29:34.008Z,20.17
2023-05-06T06:34:37.776Z,20.74
2023-05-06T06:39:41.129Z,21.14
2023-05-06T06:44:45.176Z,21.46
2023-05-06T06:49:48.424Z,21.76
2023-05-06T06:54:51.497Z,21.63
2023-05-06T06:59:56.164Z,22.06
2023-05-06T07:04:59.758Z,21.96
2023-05-06T07:10:03.318Z,22.36
2023-05-06T07:15:07.578Z,22.01
2023-05-06T07:20:12.247Z,22.30
2023-05-06T07:25:16.096Z,23.00
2023-05-06T07:30:22.411Z,22.31
2023-05-06T07:35:26.998Z,22.62
2023-05-06T07:40:31.358Z,22.61
2023-05-06T07:45:35.215Z,21.87
2023-05-06T07:50:38.420Z,22.72
2023-05-06T07:55:41.610Z,22.60
2023-05-06T08:00:45.198Z,22.74
2023-05-06T08:05:51.678Z,22.95
2023-05-06T08:10:59.106Z,23.26
2023-05-06T08:16:02.987Z,22.72
2023-05-06T08:21:07.056Z,22.74
2023-05-06T08:26:10.954Z,22.57
2023-05-06T08:31:14.853Z,21.97
2023-05-06T08:36:18.554Z,22.70
2023-05-06T08:41:22.662Z,23.10
2023-05-06T08:46:27.703Z,22.64
2023-05-06T08:51:32.083Z,22.66
2023-05-06T08:56:38.206Z,22.15
2023-05-06T09:01:41.698Z,23.42
2023-05-06T09:06:44.893Z,23.01
2023-05-06T09:11:54.450Z,22.49
2023-05-06T09:16:58.722Z,23.11
2023-05-06T09:22:02.285Z,24.12
2023-05-06T09:27:08.344Z,23.35
2023-05-06T09:32:16.444Z,23.20
2023-05-06T09:37:21.352Z,22.80
2023-05-06T09:42:29.547Z,22.88
2023-05-06T09:47:36.740Z,24.07
2023-05-06T09:52:40.305Z,23.74
2023-05-06T09:57:45.448Z,24.12
2023-05-06T10:02:50.499Z,23.67
2023-05-06T10:07:57.633Z,23.08
2023-05-06T10:13:05.094Z,23.90
2023-05-06T10:18:09.933Z,24.42
2023-05-06T10:23:29.972Z,24.02
2023-05-06T10:28:40.272Z,24.26
2023-05-06T10:33:48.192Z,23.76
2023-05-06T10:38:57.533Z,23.82
2023-05-06T10:44:01.094Z,24.31
2023-05-06T10:49:11.643Z,24.00
2023-05-06T10:54:21.913Z,24.69
2023-05-06T10:59:26.851Z,25.23
2023-05-06T11:04:31.658Z,24.49
2023-05-06T11:09:58.541Z,24.90
2023-05-06T11:15:39.561Z,23.60
2023-05-06T11:20:43.112Z,24.46
2023-05-06T11:25:47.710Z,24.56
2023-05-06T11:30:56.143Z,24.37
2023-05-06T11:36:01.559Z,24.62
2023-05-06T11:41:04.712Z,24.41
2023-05-06T11:46:07.831Z,23.89
2023-05-06T11:51:11.694Z,22.43
2023-05-06T11:56:15.076Z,22.12
2023-05-06T12:01:18.804Z,21.89
2023-05-06T12:06:34.785Z,21.63
2023-05-06T12:11:39.148Z,22.72
2023-05-06T12:16:43.157Z,20.88
2023-05-06T12:21:47.262Z,21.19
2023-05-06T12:26:50.506Z,20.89
2023-05-06T12:32:09.484Z,20.65
2023-05-06T12:37:25.924Z,21.52
2023-05-06T12:42:29.721Z,22.83
2023-05-06T12:47:33.644Z,21.95
2023-05-06T12:52:45.308Z,21.91
2023-05-06T12:57:49.566Z,21.79
2023-05-06T13:02:53.465Z,22.33
2023-05-06T13:07:56.736Z,23.49
2023-05-06T13:13:01.074Z,23.43
2023-05-06T13:18:04.501Z,23.83
2023-05-06T13:23:08.139Z,24.10
2023-05-06T13:28:11.271Z,24.22
2023-05-06T13:33:15.074Z,24.31
2023-05-06T13:38:18.331Z,23.92
2023-05-06T13:43:25.152Z,24.28
2023-05-06T13:48:28.375Z,24.29
2023-05-06T13:53:32.610Z,24.29
2023-05-06T13:58:36.323Z,24.70
2023-05-06T14:03:39.671Z,24.17
2023-05-06T14:08:43.399Z,24.58
2023-05-06T14:13:46.542Z,24.37
2023-05-06T14:18:50.071Z,25.17
2023-05-06T14:23:53.738Z,25.79
2023-05-06T14:28:57.656Z,25.25
2023-05-06T14:34:02.065Z,25.14
2023-05-06T14:39:06.348Z,24.85
2023-05-06T14:44:09.857Z,24.11
2023-05-06T14:49:13.497Z,23.49
2023-05-06T14:54:17.831Z,23.23
2023-05-06T14:59:23.689Z,23.46
2023-05-06T15:04:28.011Z,23.58
2023-05-06T15:09:31.946Z,22.94
2023-05-06T15:14:35.536Z,23.19
2023-05-06T15:19:39.949Z,22.42
2023-05-06T15:24:43.680Z,23.03
2023-05-06T15:29:47.511Z,22.78
2023-05-06T15:34:50.603Z,22.49
2023-05-06T15:39:54.121Z,22.29
2023-05-06T15:44:58.708Z,22.21
2023-05-06T15:50:03.647Z,22.36
2023-05-06T15:55:14.581Z,21.93
2023-05-06T16:00:18.030Z,21.38
2023-05-06T16:05:21.721Z,20.69
2023-05-06T16:10:26.094Z,20.14
2023-05-06T16:15:30.089Z,19.64
2023-05-06T16:20:33.186Z,19.41
2023-05-06T16:25:40.637Z,18.94
2023-05-06T16:30:46.637Z,18.19
2023-05-06T16:35:50.243Z,17.83
2023-05-06T16:40:54.340Z,17.44
2023-05-06T16:45:57.743Z,17.24
2023-05-06T16:51:01.990Z,16.87
2023-05-06T16:56:06.305Z,16.83
2023-05-06T17:01:11.528Z,16.76
2023-05-06T17:06:15.194Z,16.47
2023-05-06T17:11:18.849Z,16.34
2023-05-06T17:16:24.310Z,16.18
2023-05-06T17:21:28.504Z,16.09
2023-05-06T17:26:33.434Z,15.91
2023-05-06T17:31:37.159Z,15.87
2023-05-06T17:36:41.452Z,15.74
2023-05-06T17:41:44.710Z,15.69
2023-05-06T17:46:48.731Z,15.50
2023-05-06T17:51:53.084Z,15.26
2023-05-06T17:56:56.655Z,14.88
2023-05-06T18:02:00.678Z,14.52
2023-05-06T18:07:04.226Z,14.32
2023-05-06T18:12:08.224Z,13.96
2023-05-06T18:17:12.283Z,13.88
2023-05-06T18:22:15.972Z,13.52
2023-05-06T18:27:19.874Z,13.31
2023-05-06T18:32:23.596Z,13.23
2023-05-06T18:37:30.213Z,13.14
2023-05-06T18:42:35.606Z,12.95
2023-05-06T18:47:40.588Z,12.77
2023-05-06T18:52:44.462Z,12.63
2023-05-06T18:57:48.156Z,12.54
2023-05-06T19:02:52.604Z,12.47
2023-05-06T19:07:56.754Z,12.38
2023-05-06T19:13:00.098Z,12.25
2023-05-06T19:18:04.205Z,12.11
2023-05-06T19:23:08.140Z,12.10
2023-05-06T19:28:19.521Z,12.05
2023-05-06T19:33:26.830Z,11.98
2023-05-06T19:38:30.600Z,11.94
2023-05-06T19:43:34.609Z,11.92
2023-05-06T19:48:42.009Z,11.88
2023-05-06T19:53:46.121Z,11.78
2023-05-06T19:58:51.320Z,11.71
2023-05-06T20:03:55.789Z,11.62
2023-05-06T20:08:59.039Z,11.60
2023-05-06T20:14:02.556Z,11.52
2023-05-06T20:19:06.423Z,11.39
2023-05-06T20:24:09.435Z,11.35
2023-05-06T20:29:14.105Z,11.24
2023-05-06T20:34:19.260Z,11.14
2023-05-06T20:39:27.671Z,11.32
2023-05-06T20:44:33.336Z,11.50
2023-05-06T20:49:37.305Z,11.29
2023-05-06T20:54:45.547Z,11.13
2023-05-06T20:59:52.885Z,10.84
2023-05-06T21:04:56.060Z,10.69
2023-05-06T21:10:00.549Z,10.64
2023-05-06T21:15:05.036Z,10.46
2023-05-06T21:20:08.972Z,10.29
2023-05-06T21:25:13.507Z,10.23
2023-05-06T21:30:17.655Z,10.08
2023-05-06T21:35:22.846Z,10.15
2023-05-06T21:40:26.738Z,10.17
2023-05-06T21:45:30.594Z,10.16
2023-05-06T21:50:33.655Z,10.09
2023-05-06T21:55:37.887Z,10.10
2023-05-06T22:00:41.618Z,10.08
2023-05-06T22:05:44.647Z,10.20
2023-05-06T22:10:48.768Z,10.16
2023-05-06T22:15:52.323Z,10.15
2023-05-06T22:20:57.074Z,10.16
2023-05-06T22:26:01.117Z,10.00
2023-05-06T22:31:04.901Z,9.95
2023-05-06T22:36:08.797Z,9.99
2023-05-06T22:41:12.029Z,10.06
2023-05-06T22:46:15.931Z,10.14
2023-05-06T22:51:21.458Z,10.17
2023-05-06T22:56:25.295Z,10.11
2023-05-06T23:01:32.438Z,10.00
2023-05-06T23:06:36.432Z,10.07
2023-05-06T23:11:41.141Z,10.10
2023-05-06T23:16:44.657Z,10.05
2023-05-06T23:21:48.417Z,10.17
2023-05-06T23:26:52.731Z,10.10
2023-05-06T23:31:56.285Z,10.14
2023-05-06T23:37:00.257Z,10.10
2023-05-06T23:42:03.835Z,9.93
2023-05-06T23:47:07.742Z,9.90
2023-05-06T23:52:11.462Z,9.88
2023-05-06T23:57:15.086Z,9.75
